createdAt,value
2018-07-28T00:01:37.910Z,12.20
2018-07-28T00:04:05.145Z,11.20
2018-07-28T00:06:33.088Z,10.80
2018-07-28T00:09:01.014Z,11.33
2018-07-28T00:11:28.142Z,11.83
2018-07-28T00:13:55.316Z,11.60
2018-07-28T00:16:22.461Z,12.20
2018-07-28T00:18:49.717Z,11.67
2018-07-28T00:21:16.872Z,11.10
2018-07-28T00:23:44.102Z,11.73
2018-07-28T00:26:16.311Z,12.47
2018-07-28T00:28:43.655Z,12.37
2018-07-28T00:31:10.968Z,11.50
2018-07-28T00:33:38.188Z,13.23
2018-07-28T00:36:05.380Z,12.80
2018-07-28T00:38:32.566Z,12.87
2018-07-28T00:40:59.700Z,13.50
2018-07-28T00:43:26.931Z,12.70
2018-07-28T00:45:54.085Z,12.93
2018-07-28T00:48:21.272Z,11.27
2018-07-28T00:50:48.392Z,12.80
2018-07-28T00:53:16.278Z,12.80
2018-07-28T00:55:43.510Z,12.97
2018-07-28T00:58:11.014Z,12.50
2018-07-28T01:00:38.192Z,14.57
2018-07-28T01:03:05.407Z,13.60
2018-07-28T01:05:32.582Z,12.20
2018-07-28T01:07:59.767Z,11.73
2018-07-28T01:10:26.960Z,12.77
2018-07-28T01:12:54.117Z,11.63
2018-07-28T01:15:21.262Z,12.00
2018-07-28T01:17:48.495Z,12.80
2018-07-28T01:20:15.746Z,14.50
2018-07-28T01:22:42.926Z,12.40
2018-07-28T01:25:11.048Z,12.60
2018-07-28T01:27:38.594Z,13.27
2018-07-28T01:30:09.247Z,12.83
2018-07-28T01:32:36.363Z,12.67
2018-07-28T01:35:04.182Z,12.30
2018-07-28T01:37:31.376Z,14.00
2018-07-28T01:39:58.633Z,13.17
2018-07-28T01:42:25.794Z,12.37
2018-07-28T01:44:52.947Z,11.50
2018-07-28T01:47:20.134Z,12.23
2018-07-28T01:49:47.328Z,12.00
2018-07-28T01:52:14.491Z,11.30
2018-07-28T01:54:41.636Z,12.37
2018-07-28T01:57:08.786Z,11.70
2018-07-28T01:59:35.984Z,12.87
2018-07-28T02:02:03.273Z,11.70
2018-07-28T02:04:30.427Z,11.77
2018-07-28T02:06:57.572Z,12.60
2018-07-28T02:09:24.760Z,12.43
2018-07-28T02:11:51.952Z,13.63
2018-07-28T02:14:19.211Z,12.00
2018-07-28T02:16:46.400Z,12.10
2018-07-28T02:19:13.596Z,11.63
2018-07-28T02:21:40.712Z,12.03
2018-07-28T02:24:07.835Z,12.43
2018-07-28T02:26:35.030Z,12.10
2018-07-28T02:29:02.223Z,11.90
2018-07-28T02:31:29.365Z,12.47
2018-07-28T02:33:56.540Z,12.00
2018-07-28T02:36:23.871Z,12.20
2018-07-28T02:38:51.655Z,12.93
2018-07-28T02:41:18.887Z,12.50
2018-07-28T02:43:46.009Z,12.00
2018-07-28T02:46:13.128Z,11.27
2018-07-28T02:48:40.277Z,12.03
2018-07-28T02:51:07.650Z,11.33
2018-07-28T02:53:34.816Z,15.20
2018-07-28T02:56:01.993Z,11.40
2018-07-28T02:58:29.129Z,11.63
2018-07-28T03:00:56.376Z,12.83
2018-07-28T03:03:23.656Z,12.37
2018-07-28T03:05:50.829Z,11.50
2018-07-28T03:08:18.096Z,11.93
2018-07-28T03:10:45.277Z,11.87
2018-07-28T03:13:12.518Z,13.70
2018-07-28T03:15:39.760Z,11.73
2018-07-28T03:18:07.609Z,12.03
2018-07-28T03:20:34.808Z,11.53
2018-07-28T03:23:02.597Z,11.80
2018-07-28T03:25:29.847Z,11.53
2018-07-28T03:27:57.263Z,12.13
2018-07-28T03:30:24.836Z,30.67
2018-07-28T03:32:52.255Z,13.33
2018-07-28T03:35:19.451Z,12.10
2018-07-28T03:37:46.748Z,11.97
2018-07-28T03:40:14.100Z,11.53
2018-07-28T03:42:41.360Z,11.93
2018-07-28T03:45:09.451Z,13.13
2018-07-28T03:47:37.233Z,12.10
2018-07-28T03:50:04.385Z,11.83
2018-07-28T03:52:31.623Z,11.63
2018-07-28T03:54:58.888Z,12.37
2018-07-28T03:57:26.068Z,12.10
2018-07-28T03:59:53.229Z,12.37
2018-07-28T04:02:20.505Z,13.30
2018-07-28T04:04:47.615Z,12.77
2018-07-28T04:07:14.776Z,12.40
2018-07-28T04:26:25.317Z,13.40
2018-07-28T04:28:52.448Z,12.07
2018-07-28T04:31:19.596Z,12.50
2018-07-28T04:33:46.862Z,12.50
2018-07-28T04:36:14.129Z,12.37
2018-07-28T04:38:41.299Z,12.50
2018-07-28T04:41:08.520Z,12.60
2018-07-28T04:43:35.721Z,13.40
2018-07-28T04:46:02.927Z,12.37
2018-07-28T04:48:30.262Z,12.63
2018-07-28T04:50:57.562Z,13.53
2018-07-28T04:53:24.717Z,12.47
2018-07-28T04:55:51.903Z,13.77
2018-07-28T04:58:19.098Z,13.20
2018-07-28T05:00:46.285Z,13.07
2018-07-28T05:03:13.496Z,12.30
2018-07-28T05:05:40.684Z,12.30
2018-07-28T05:08:08.090Z,13.23
2018-07-28T05:10:35.344Z,11.40
2018-07-28T05:13:03.436Z,14.13
2018-07-28T05:15:30.653Z,13.20
2018-07-28T05:17:58.242Z,13.50
2018-07-28T05:20:26.026Z,13.40
2018-07-28T05:22:53.293Z,13.70
2018-07-28T05:25:20.529Z,13.50
2018-07-28T05:27:47.685Z,13.67
2018-07-28T05:30:14.949Z,16.87
2018-07-28T05:32:42.477Z,13.83
2018-07-28T05:35:10.324Z,14.40
2018-07-28T05:37:38.014Z,14.37
2018-07-28T05:40:05.169Z,19.30
2018-07-28T05:42:32.546Z,12.50
2018-07-28T05:45:00.269Z,14.33
2018-07-28T05:47:27.462Z,13.50
2018-07-28T05:49:54.788Z,13.53
2018-07-28T05:52:22.039Z,14.40
2018-07-28T05:54:49.432Z,18.17
2018-07-28T05:57:16.709Z,13.87
2018-07-28T05:59:44.899Z,14.33
2018-07-28T06:02:12.293Z,12.73
2018-07-28T06:04:39.468Z,13.30
2018-07-28T06:07:06.930Z,13.20
2018-07-28T06:09:34.120Z,13.23
2018-07-28T06:12:01.259Z,13.60
2018-07-28T06:14:28.389Z,13.00
2018-07-28T06:16:56.707Z,15.10
2018-07-28T06:19:23.834Z,17.73
2018-07-28T06:21:51.064Z,15.53
2018-07-28T06:24:18.291Z,19.33
2018-07-28T06:26:45.568Z,13.97
2018-07-28T06:29:12.866Z,14.47
2018-07-28T06:31:40.250Z,13.73
2018-07-28T06:34:07.404Z,17.00
2018-07-28T06:36:34.727Z,14.10
2018-07-28T06:39:02.544Z,13.77
2018-07-28T06:41:29.714Z,14.50
2018-07-28T06:43:57.009Z,13.97
2018-07-28T06:46:24.189Z,12.83
2018-07-28T06:48:51.378Z,15.40
2018-07-28T06:51:18.580Z,13.37
2018-07-28T06:53:45.930Z,12.60
2018-07-28T06:56:13.292Z,13.23
2018-07-28T06:58:40.663Z,13.93
2018-07-28T07:01:07.868Z,13.20
2018-07-28T07:03:35.079Z,13.80
2018-07-28T07:06:02.245Z,13.37
2018-07-28T07:08:29.404Z,12.80
2018-07-28T07:10:56.571Z,13.27
2018-07-28T07:13:23.713Z,12.80
2018-07-28T07:15:51.030Z,13.20
2018-07-28T07:18:18.246Z,13.70
2018-07-28T07:20:45.491Z,12.90
2018-07-28T07:23:12.899Z,14.97
2018-07-28T07:25:40.489Z,13.27
2018-07-28T07:28:07.905Z,13.57
2018-07-28T07:30:35.159Z,14.03
2018-07-28T07:33:02.605Z,13.57
2018-07-28T07:35:30.364Z,12.23
2018-07-28T07:37:57.610Z,13.73
2018-07-28T07:40:25.382Z,12.77
2018-07-28T07:42:52.703Z,13.47
2018-07-28T07:45:20.064Z,14.60
2018-07-28T07:47:47.380Z,13.50
2018-07-28T07:50:14.851Z,13.73
2018-07-28T07:52:42.098Z,14.03
2018-07-28T07:55:10.125Z,12.90
2018-07-28T07:57:37.364Z,12.83
2018-07-28T08:00:04.554Z,12.87
2018-07-28T08:02:31.819Z,15.50
2018-07-28T08:04:58.986Z,13.10
2018-07-28T08:07:26.146Z,13.10
2018-07-28T08:09:54.032Z,12.90
2018-07-28T08:12:21.246Z,12.90
2018-07-28T08:14:48.497Z,13.67
2018-07-28T08:17:15.650Z,12.90
2018-07-28T08:19:43.996Z,14.00
2018-07-28T08:22:11.173Z,12.43
2018-07-28T08:24:38.627Z,13.57
2018-07-28T08:27:05.836Z,12.87
2018-07-28T08:29:33.366Z,13.67
2018-07-28T08:32:00.648Z,12.83
2018-07-28T08:34:28.074Z,14.17
2018-07-28T08:36:55.800Z,12.63
2018-07-28T08:39:23.037Z,12.33
2018-07-28T08:41:50.288Z,13.07
2018-07-28T08:44:17.753Z,12.37
2018-07-28T08:46:45.151Z,15.10
2018-07-28T08:49:12.442Z,11.70
2018-07-28T08:51:39.662Z,12.40
2018-07-28T08:54:06.970Z,17.03
2018-07-28T08:56:34.216Z,13.20
2018-07-28T08:59:02.067Z,11.50
2018-07-28T09:01:29.373Z,11.77
2018-07-28T09:03:56.613Z,10.97
2018-07-28T09:06:24.148Z,10.90
2018-07-28T09:08:51.548Z,12.23
2018-07-28T09:11:19.065Z,11.37
2018-07-28T09:13:46.856Z,12.57
2018-07-28T09:16:15.635Z,11.07
2018-07-28T09:18:43.420Z,10.80
2018-07-28T09:21:10.864Z,12.90
2018-07-28T09:23:38.547Z,10.97
2018-07-28T09:26:05.913Z,11.43
2018-07-28T09:28:33.436Z,11.63
2018-07-28T09:31:00.995Z,11.20
2018-07-28T09:33:29.061Z,11.37
2018-07-28T09:35:57.277Z,10.80
2018-07-28T09:38:24.513Z,11.37
2018-07-28T09:40:51.787Z,11.40
2018-07-28T09:43:19.292Z,10.80
2018-07-28T09:45:46.555Z,10.87
2018-07-28T09:48:14.098Z,11.10
2018-07-28T09:50:41.480Z,11.90
2018-07-28T09:53:08.650Z,12.70
2018-07-28T09:55:35.824Z,11.57
2018-07-28T09:58:02.972Z,11.50
2018-07-28T10:00:36.060Z,11.50
2018-07-28T10:03:03.922Z,11.97
2018-07-28T10:05:31.874Z,12.93
2018-07-28T10:07:59.403Z,10.73
2018-07-28T10:10:27.570Z,11.30
2018-07-28T10:12:54.898Z,13.23
2018-07-28T10:15:22.093Z,12.57
2018-07-28T10:17:49.511Z,10.23
2018-07-28T10:20:17.689Z,10.63
2018-07-28T10:39:28.014Z,12.60
2018-07-28T10:41:55.996Z,11.00
2018-07-28T10:44:23.208Z,10.80
2018-07-28T10:46:50.570Z,10.07
2018-07-28T10:49:19.379Z,9.53
2018-07-28T10:51:47.267Z,9.90
2018-07-28T10:54:15.412Z,10.80
2018-07-28T10:56:42.568Z,11.47
2018-07-28T10:59:10.557Z,10.43
2018-07-28T11:01:37.844Z,10.93
2018-07-28T11:04:05.328Z,10.23
2018-07-28T11:06:32.558Z,8.67
2018-07-28T11:08:59.865Z,8.47
2018-07-28T11:11:27.171Z,9.83
2018-07-28T11:13:54.527Z,8.57
2018-07-28T11:16:21.831Z,7.43
2018-07-28T11:18:49.896Z,7.60
2018-07-28T11:21:17.039Z,8.30
2018-07-28T11:23:51.013Z,7.90
2018-07-28T11:26:18.313Z,9.03
2018-07-28T11:28:45.656Z,8.40
2018-07-28T11:31:24.804Z,7.60
2018-07-28T11:34:03.459Z,8.20
2018-07-28T11:36:36.880Z,8.20
2018-07-28T11:39:15.634Z,8.33
2018-07-28T11:41:54.323Z,8.60
2018-07-28T11:44:27.427Z,7.33
2018-07-28T11:46:54.647Z,7.70
2018-07-28T11:49:22.594Z,8.47
2018-07-28T11:51:50.422Z,8.10
2018-07-28T11:54:17.681Z,9.53
2018-07-28T11:56:45.576Z,8.70
2018-07-28T11:59:12.824Z,8.60
2018-07-28T12:01:41.091Z,9.03
2018-07-28T12:04:08.347Z,9.30
2018-07-28T12:06:35.474Z,9.77
2018-07-28T12:09:02.818Z,9.37
2018-07-28T12:11:30.169Z,9.23
2018-07-28T12:13:57.358Z,10.00
2018-07-28T12:16:24.680Z,8.87
2018-07-28T12:18:51.871Z,9.60
2018-07-28T12:21:19.095Z,8.80
2018-07-28T12:23:46.433Z,9.60
2018-07-28T12:26:13.704Z,8.83
2018-07-28T12:28:41.516Z,8.30
2018-07-28T12:31:08.848Z,8.20
2018-07-28T12:33:36.048Z,7.63
2018-07-28T12:36:05.055Z,7.50
2018-07-28T12:38:32.288Z,7.10
2018-07-28T12:40:59.929Z,7.33
2018-07-28T12:43:28.077Z,7.07
2018-07-28T12:45:56.295Z,7.50
2018-07-28T12:48:23.554Z,7.00
2018-07-28T12:50:50.724Z,7.53
2018-07-28T12:53:18.068Z,6.83
2018-07-28T12:55:45.380Z,9.53
2018-07-28T12:58:12.552Z,7.70
2018-07-28T13:00:39.809Z,9.83
2018-07-28T13:03:07.019Z,7.17
2018-07-28T13:05:34.275Z,7.23
2018-07-28T13:08:01.521Z,7.60
2018-07-28T13:10:28.757Z,7.83
2018-07-28T13:29:39.373Z,7.17
2018-07-28T13:32:06.728Z,7.03
2018-07-28T13:34:34.849Z,6.60
2018-07-28T13:37:02.213Z,6.20
2018-07-28T13:39:30.041Z,6.33
2018-07-28T13:41:57.238Z,9.40
2018-07-28T13:44:27.225Z,7.40
2018-07-28T13:46:54.388Z,7.53
2018-07-28T13:49:22.766Z,9.90
2018-07-28T13:51:50.204Z,8.23
2018-07-28T13:54:18.288Z,7.50
2018-07-28T13:56:45.514Z,15.80
2018-07-28T13:59:12.853Z,8.90
2018-07-28T14:01:40.213Z,8.93
2018-07-28T14:04:07.543Z,21.03
2018-07-28T14:06:35.517Z,13.87
2018-07-28T14:09:04.212Z,18.77
2018-07-28T14:11:31.463Z,10.90
2018-07-28T14:13:58.670Z,14.07
2018-07-28T14:16:26.040Z,10.87
2018-07-28T14:18:53.331Z,10.80
2018-07-28T14:21:20.536Z,9.50
2018-07-28T14:23:47.773Z,10.83
2018-07-28T14:26:14.949Z,11.03
2018-07-28T14:28:42.164Z,9.80
2018-07-28T14:31:09.489Z,10.87
2018-07-28T14:33:37.600Z,11.67
2018-07-28T14:36:05.164Z,11.27
2018-07-28T14:38:32.341Z,10.63
2018-07-28T14:40:59.596Z,12.23
2018-07-28T14:43:26.975Z,11.73
2018-07-28T14:45:54.180Z,12.87
2018-07-28T14:48:22.240Z,12.73
2018-07-28T14:50:49.366Z,14.17
2018-07-28T14:53:16.837Z,12.77
2018-07-28T14:55:44.269Z,13.37
2018-07-28T14:58:11.761Z,12.23
2018-07-28T15:00:40.056Z,12.00
2018-07-28T15:03:07.297Z,21.50
2018-07-28T15:05:34.636Z,13.60
2018-07-28T15:08:01.886Z,10.13
2018-07-28T15:10:29.222Z,10.77
2018-07-28T15:12:56.617Z,10.77
2018-07-28T15:15:25.127Z,10.70
2018-07-28T15:17:53.092Z,11.30
2018-07-28T15:20:20.403Z,12.63
2018-07-28T15:22:47.630Z,10.43
2018-07-28T15:25:15.005Z,11.10
2018-07-28T15:27:42.256Z,11.57
2018-07-28T15:30:12.448Z,12.30
2018-07-28T15:32:39.704Z,11.17
2018-07-28T15:35:08.027Z,11.80
2018-07-28T15:37:35.409Z,12.63
2018-07-28T15:40:05.265Z,12.10
2018-07-28T15:42:33.118Z,13.57
2018-07-28T15:45:00.628Z,12.13
2018-07-28T15:47:28.423Z,11.70
2018-07-28T15:49:56.371Z,13.67
2018-07-28T15:52:24.500Z,12.00
2018-07-28T15:54:51.741Z,12.90
2018-07-28T15:57:19.116Z,10.83
2018-07-28T15:59:46.367Z,10.77
2018-07-28T16:02:13.698Z,11.07
2018-07-28T16:04:40.966Z,11.70
2018-07-28T16:07:08.309Z,11.23
2018-07-28T16:09:35.540Z,12.80
2018-07-28T16:12:02.793Z,11.07
2018-07-28T16:14:31.037Z,10.00
2018-07-28T16:16:58.437Z,10.20
2018-07-28T16:19:26.284Z,9.77
2018-07-28T16:21:53.488Z,11.00
2018-07-28T16:24:20.984Z,10.43
2018-07-28T16:26:48.988Z,12.73
2018-07-28T16:29:16.221Z,11.60
2018-07-28T16:31:44.064Z,10.17
2018-07-28T16:34:12.161Z,9.43
2018-07-28T16:36:40.361Z,10.53
2018-07-28T16:39:08.546Z,9.83
2018-07-28T16:41:37.605Z,9.23
2018-07-28T16:44:04.939Z,10.17
2018-07-28T16:46:32.474Z,10.07
2018-07-28T16:48:59.605Z,8.90
2018-07-28T16:51:26.780Z,9.67
2018-07-28T16:53:53.892Z,9.37
2018-07-28T16:56:21.118Z,9.40
2018-07-28T16:58:48.739Z,9.30
2018-07-28T17:01:15.876Z,9.30
2018-07-28T17:03:43.645Z,10.50
2018-07-28T17:06:10.793Z,8.63
2018-07-28T17:08:37.929Z,8.20
2018-07-28T17:11:05.155Z,8.60
2018-07-28T17:13:33.220Z,8.27
2018-07-28T17:16:00.448Z,9.80
2018-07-28T17:18:27.673Z,8.17
2018-07-28T17:20:54.875Z,9.37
2018-07-28T17:23:22.069Z,8.63
2018-07-28T17:25:50.075Z,9.60
2018-07-28T17:28:17.373Z,8.70
2018-07-28T17:30:45.064Z,8.50
2018-07-28T17:33:12.190Z,8.60
2018-07-28T17:35:39.365Z,9.40
2018-07-28T17:38:06.798Z,8.83
2018-07-28T17:40:33.947Z,9.57
2018-07-28T17:43:01.141Z,8.20
2018-07-28T17:45:28.320Z,8.90
2018-07-28T17:47:55.596Z,9.30
2018-07-28T17:50:22.779Z,9.40
2018-07-28T17:52:50.158Z,9.07
2018-07-28T17:55:17.315Z,7.43
2018-07-28T17:57:44.916Z,7.70
2018-07-28T18:00:12.589Z,8.10
2018-07-28T18:02:39.773Z,7.50
2018-07-28T18:05:09.503Z,8.97
2018-07-28T18:07:36.879Z,8.20
2018-07-28T18:10:04.269Z,7.60
2018-07-28T18:12:31.614Z,8.10
2018-07-28T18:14:58.884Z,9.97
2018-07-28T18:17:26.067Z,8.80
2018-07-28T18:19:54.440Z,7.97
2018-07-28T18:22:22.240Z,8.07
2018-07-28T18:24:50.099Z,7.63
2018-07-28T18:27:17.504Z,8.87
2018-07-28T18:29:44.692Z,7.67
2018-07-28T18:32:11.881Z,10.43
2018-07-28T18:34:39.053Z,8.23
2018-07-28T18:37:06.739Z,10.30
2018-07-28T18:39:33.923Z,8.30
2018-07-28T18:42:01.160Z,7.97
2018-07-28T18:44:28.401Z,8.20
2018-07-28T18:46:55.555Z,8.57
2018-07-28T18:49:22.800Z,8.63
2018-07-28T18:51:51.132Z,8.07
2018-07-28T18:54:18.274Z,9.63
2018-07-28T18:56:45.580Z,9.13
2018-07-28T18:59:12.737Z,7.43
2018-07-28T19:01:40.097Z,8.37
2018-07-28T19:04:07.394Z,10.67
2018-07-28T19:06:35.130Z,6.60
2018-07-28T19:09:08.230Z,6.70
2018-07-28T19:11:36.313Z,7.17
2018-07-28T19:14:09.280Z,7.03
2018-07-28T19:16:36.493Z,6.80
2018-07-28T19:19:09.754Z,7.33
2018-07-28T19:21:36.933Z,6.27
2018-07-28T19:24:04.162Z,7.00
2018-07-28T19:26:31.810Z,7.10
2018-07-28T19:29:05.394Z,7.10
2018-07-28T19:31:32.884Z,7.00
2018-07-28T19:34:00.229Z,5.90
2018-07-28T19:36:33.302Z,5.53
2018-07-28T19:39:01.090Z,5.50
2018-07-28T19:41:30.240Z,7.33
2018-07-28T19:43:58.298Z,7.27
2018-07-28T19:46:25.531Z,7.63
2018-07-28T19:48:53.795Z,6.30
2018-07-28T19:51:23.046Z,7.67
2018-07-28T19:53:50.237Z,7.37
2018-07-28T19:56:17.424Z,9.43
2018-07-28T19:58:44.632Z,6.10
2018-07-28T20:01:11.894Z,6.80
2018-07-28T20:03:39.112Z,6.47
2018-07-28T20:06:06.412Z,7.50
2018-07-28T20:08:33.767Z,6.23
2018-07-28T20:11:01.200Z,5.87
2018-07-28T20:13:28.431Z,6.00
2018-07-28T20:15:55.856Z,6.17
2018-07-28T20:18:24.000Z,6.03
2018-07-28T20:20:51.609Z,6.10
2018-07-28T20:23:20.077Z,5.93
2018-07-28T20:25:47.330Z,6.20
2018-07-28T20:28:14.516Z,6.47
2018-07-28T20:30:43.051Z,7.33
2018-07-28T20:33:10.300Z,6.33
2018-07-28T20:35:37.618Z,5.83
2018-07-28T20:38:04.932Z,6.27
2018-07-28T20:40:32.212Z,5.27
2018-07-28T20:42:59.395Z,6.17
2018-07-28T20:45:27.403Z,5.90
2018-07-28T20:47:54.658Z,5.67
2018-07-28T20:50:21.975Z,7.13
2018-07-28T20:52:49.611Z,5.30
2018-07-28T20:55:17.916Z,5.97
2018-07-28T20:57:45.428Z,5.70
2018-07-28T21:00:12.644Z,6.23
2018-07-28T21:02:39.899Z,6.30
2018-07-28T21:05:07.097Z,5.47
2018-07-28T21:07:34.359Z,5.03
2018-07-28T21:10:01.728Z,5.60
2018-07-28T21:12:28.960Z,7.77
2018-07-28T21:14:56.222Z,5.50
2018-07-28T21:17:23.356Z,6.30
2018-07-28T21:19:50.541Z,5.20
2018-07-28T21:22:18.004Z,5.37
2018-07-28T21:24:45.146Z,6.10
2018-07-28T21:27:12.340Z,5.80
2018-07-28T21:29:39.684Z,5.10
2018-07-28T21:32:06.875Z,5.37
2018-07-28T21:34:33.992Z,6.00
2018-07-28T21:37:01.207Z,5.13
2018-07-28T21:39:28.301Z,5.90
2018-07-28T21:41:55.437Z,5.00
2018-07-28T21:44:22.548Z,5.37
2018-07-28T21:46:49.653Z,5.60
2018-07-28T21:49:16.791Z,5.80
2018-07-28T21:51:43.906Z,5.63
2018-07-28T21:54:11.022Z,6.77
2018-07-28T21:56:38.180Z,5.90
2018-07-28T21:59:05.292Z,5.63
2018-07-28T22:01:32.436Z,6.00
2018-07-28T22:04:01.444Z,6.07
2018-07-28T22:06:28.897Z,6.90
2018-07-28T22:08:55.987Z,6.47
2018-07-28T22:11:23.103Z,6.50
2018-07-28T22:13:50.252Z,6.67
2018-07-28T22:16:17.342Z,5.30
2018-07-28T22:18:44.530Z,5.50
2018-07-28T22:21:11.901Z,5.77
2018-07-28T22:23:39.224Z,5.97
2018-07-28T22:26:06.432Z,6.70
2018-07-28T22:28:33.536Z,5.97
2018-07-28T22:31:00.633Z,6.30
2018-07-28T22:33:27.718Z,6.10
2018-07-28T22:35:55.132Z,6.67
2018-07-28T22:38:22.232Z,6.23
2018-07-28T22:40:49.391Z,5.43
2018-07-28T22:43:16.531Z,5.90
2018-07-28T22:45:43.697Z,6.93
2018-07-28T22:48:10.820Z,6.17
2018-07-28T22:50:37.952Z,6.40
2018-07-28T22:53:05.172Z,7.30
2018-07-28T22:55:32.272Z,6.47
2018-07-28T22:57:59.460Z,6.03
2018-07-28T23:00:26.604Z,6.80
2018-07-28T23:02:53.723Z,6.50
2018-07-28T23:05:20.871Z,6.90
2018-07-28T23:07:47.972Z,6.70
2018-07-28T23:10:15.069Z,5.90
2018-07-28T23:12:42.282Z,6.30
2018-07-28T23:15:09.535Z,6.40
2018-07-28T23:17:36.648Z,6.30
2018-07-28T23:20:05.120Z,7.20
2018-07-28T23:22:32.231Z,8.87
2018-07-28T23:24:59.362Z,7.20
2018-07-28T23:27:26.538Z,8.70
2018-07-28T23:29:53.687Z,6.83
2018-07-28T23:32:20.809Z,6.50
2018-07-28T23:34:47.936Z,7.93
2018-07-28T23:37:15.035Z,8.00
2018-07-28T23:39:42.267Z,13.80
2018-07-28T23:42:09.617Z,6.60
2018-07-28T23:44:36.744Z,7.20
2018-07-28T23:47:04.055Z,9.37
2018-07-28T23:49:31.155Z,7.60
2018-07-28T23:51:58.430Z,8.20
2018-07-28T23:54:25.633Z,7.93
2018-07-28T23:56:52.735Z,7.57
2018-07-28T23:59:19.869Z,7.97
